Time;durP1;ratioP1;P1;durP2;ratioP2;P2;SDS_P1;SDS_P2;PMS_P1;PMS_P2;Temp;Humidity;BMP_temperature;BMP_pressure;BME280_temperature;BME280_humidity;BME280_pressure;Samples;Min_cycle;Max_cycle;Signal;HPM_P1;HPM_P2
2022/04/05 00:00:33;;;;;;;5.25;4.25;;;;;;;;;;5098342;28;20438;-77
2022/04/05 00:03:01;;;;;;;4.82;4.32;;;;;;;;;;5103123;28;20212;-77
2022/04/05 00:05:28;;;;;;;5.32;4.47;;;;;;;;;;5110656;28;20204;-78
2022/04/05 00:07:55;;;;;;;6.80;4.45;;;;;;;;;;5110669;28;20213;-78
2022/04/05 00:10:22;;;;;;;7.67;5.27;;;;;;;;;;5110841;28;20507;-77
2022/04/05 00:12:49;;;;;;;6.25;5.65;;;;;;;;;;5111118;28;20443;-77
2022/04/05 00:15:17;;;;;;;5.13;4.63;;;;;;;;;;5096872;28;20208;-77
2022/04/05 00:17:46;;;;;;;6.53;5.23;;;;;;;;;;5092049;28;20490;-78
2022/04/05 00:20:13;;;;;;;5.95;4.53;;;;;;;;;;5096546;28;20821;-77
2022/04/05 00:22:40;;;;;;;6.03;5.10;;;;;;;;;;5101861;28;20201;-78
2022/04/05 00:25:08;;;;;;;5.43;4.93;;;;;;;;;;5105562;28;20193;-77
2022/04/05 00:27:35;;;;;;;4.80;4.30;;;;;;;;;;5114005;28;20192;-77
2022/04/05 00:30:02;;;;;;;5.60;5.10;;;;;;;;;;5113954;28;20502;-77
2022/04/05 00:32:29;;;;;;;6.40;5.68;;;;;;;;;;5114296;28;20220;-77
2022/04/05 00:34:58;;;;;;;5.93;5.35;;;;;;;;;;5114552;28;20645;-77
2022/04/05 00:37:25;;;;;;;5.50;4.60;;;;;;;;;;5083674;28;20201;-77
2022/04/05 00:39:52;;;;;;;4.38;3.90;;;;;;;;;;5095580;28;20676;-77
2022/04/05 00:42:19;;;;;;;5.40;4.27;;;;;;;;;;5096446;28;20584;-77
2022/04/05 00:44:47;;;;;;;5.97;4.73;;;;;;;;;;5101125;28;20450;-78
2022/04/05 00:47:16;;;;;;;5.07;4.40;;;;;;;;;;5100152;28;20471;-77
2022/04/05 00:49:44;;;;;;;8.03;5.90;;;;;;;;;;5075244;28;20205;-77
2022/04/05 00:52:14;;;;;;;5.63;5.13;;;;;;;;;;5092709;28;20501;-77
2022/04/05 00:54:41;;;;;;;7.20;5.93;;;;;;;;;;5093539;28;20208;-77
2022/04/05 00:57:10;;;;;;;6.68;6.00;;;;;;;;;;5093640;28;20435;-77
2022/04/05 00:59:41;;;;;;;6.53;5.78;;;;;;;;;;5094024;28;20217;-76
2022/04/05 01:02:09;;;;;;;7.00;6.38;;;;;;;;;;5095241;28;20250;-77
2022/04/05 01:04:36;;;;;;;8.55;6.32;;;;;;;;;;5096012;28;20204;-77
2022/04/05 01:07:05;;;;;;;7.50;6.80;;;;;;;;;;5100816;28;20216;-77
2022/04/05 01:09:34;;;;;;;6.20;5.60;;;;;;;;;;5103439;28;20204;-77
2022/04/05 01:12:01;;;;;;;6.80;6.20;;;;;;;;;;5112815;28;20480;-77
2022/04/05 01:14:28;;;;;;;8.13;5.90;;;;;;;;;;5113314;28;20204;-77
2022/04/05 01:16:55;;;;;;;9.75;8.07;;;;;;;;;;5113701;28;20434;-76
2022/04/05 01:19:23;;;;;;;8.45;7.53;;;;;;;;;;5113686;28;20228;-77
2022/04/05 01:21:50;;;;;;;7.25;6.47;;;;;;;;;;5103266;28;20203;-77
2022/04/05 01:24:18;;;;;;;7.95;7.15;;;;;;;;;;5094668;28;20559;-77
2022/04/05 01:26:46;;;;;;;7.95;7.15;;;;;;;;;;5095336;28;20205;-77
2022/04/05 01:29:14;;;;;;;8.98;8.07;;;;;;;;;;5081732;28;20701;-77
2022/04/05 01:31:43;;;;;;;8.20;7.40;;;;;;;;;;5102866;28;20209;-78
2022/04/05 01:34:10;;;;;;;9.52;7.55;;;;;;;;;;5094657;28;20457;-76
2022/04/05 01:36:43;;;;;;;11.10;9.30;;;;;;;;;;5112593;28;20196;-77
2022/04/05 01:39:10;;;;;;;9.60;8.60;;;;;;;;;;5113246;28;20462;-76
2022/04/05 01:41:39;;;;;;;9.80;8.80;;;;;;;;;;5113269;28;20894;-77
2022/04/05 01:44:07;;;;;;;9.80;8.67;;;;;;;;;;5084859;28;20197;-77
2022/04/05 01:46:34;;;;;;;10.77;9.70;;;;;;;;;;5094693;28;20443;-77
2022/04/05 01:49:01;;;;;;;10.75;9.30;;;;;;;;;;5094485;28;20806;-78
2022/04/05 01:51:29;;;;;;;11.23;10.00;;;;;;;;;;5100255;28;20209;-78
2022/04/05 01:53:58;;;;;;;10.10;9.10;;;;;;;;;;5099399;28;20195;-78
2022/04/05 01:56:25;;;;;;;10.77;9.67;;;;;;;;;;5091659;28;20500;-78
2022/04/05 01:58:54;;;;;;;11.43;9.97;;;;;;;;;;5091716;28;21106;-78
2022/04/05 02:01:21;;;;;;;10.87;9.73;;;;;;;;;;5092173;28;20436;-77
2022/04/05 02:03:48;;;;;;;12.10;10.80;;;;;;;;;;5092223;28;20440;-77
2022/04/05 02:06:15;;;;;;;12.00;10.70;;;;;;;;;;5092538;28;20447;-76
2022/04/05 02:08:42;;;;;;;12.63;11.13;;;;;;;;;;5094108;28;20558;-76
2022/04/05 02:11:09;;;;;;;13.07;11.63;;;;;;;;;;5093812;28;20826;-77
2022/04/05 02:13:36;;;;;;;12.25;10.95;;;;;;;;;;5099516;28;21211;-78
2022/04/05 02:16:05;;;;;;;13.30;11.90;;;;;;;;;;5099347;28;20230;-77
2022/04/05 02:18:32;;;;;;;13.60;12.20;;;;;;;;;;5091282;28;20467;-78
2022/04/05 02:21:00;;;;;;;14.53;13.10;;;;;;;;;;5091586;28;20447;-78
2022/04/05 02:23:27;;;;;;;13.23;11.83;;;;;;;;;;5091757;28;20451;-79
2022/04/05 02:25:54;;;;;;;13.43;12.07;;;;;;;;;;5094627;28;20797;-79
2022/04/05 02:28:21;;;;;;;13.57;11.60;;;;;;;;;;5092245;28;20494;-78
2022/04/05 02:30:48;;;;;;;12.13;10.93;;;;;;;;;;5094293;28;20451;-78
2022/04/05 02:33:17;;;;;;;14.87;11.97;;;;;;;;;;5093622;28;20843;-80
2022/04/05 02:35:44;;;;;;;13.13;11.73;;;;;;;;;;5099194;28;20452;-78
2022/04/05 02:38:11;;;;;;;13.80;12.17;;;;;;;;;;5099248;28;20465;-78
2022/04/05 02:40:38;;;;;;;13.40;11.40;;;;;;;;;;5073013;28;20447;-79
2022/04/05 02:43:05;;;;;;;17.43;11.80;;;;;;;;;;5072387;28;20443;-79
2022/04/05 02:45:32;;;;;;;14.97;13.37;;;;;;;;;;5091372;28;20478;-79
2022/04/05 02:48:00;;;;;;;14.37;12.70;;;;;;;;;;5091753;28;20464;-79
2022/04/05 02:50:28;;;;;;;12.97;11.60;;;;;;;;;;5073625;28;20852;-78
2022/04/05 02:52:55;;;;;;;15.80;13.77;;;;;;;;;;5093219;28;20482;-78
2022/04/05 02:55:23;;;;;;;15.20;12.30;;;;;;;;;;5093292;28;20431;-77
2022/04/05 02:57:50;;;;;;;14.27;12.77;;;;;;;;;;5098435;28;20817;-77
2022/04/05 03:00:19;;;;;;;13.17;11.77;;;;;;;;;;5099025;28;20463;-77
2022/04/05 03:02:47;;;;;;;13.70;12.07;;;;;;;;;;5111199;28;20488;-78
2022/04/05 03:05:14;;;;;;;14.27;12.40;;;;;;;;;;5093133;28;20942;-78
2022/04/05 03:07:42;;;;;;;14.30;11.90;;;;;;;;;;5111549;28;20459;-78
2022/04/05 03:10:10;;;;;;;16.43;13.10;;;;;;;;;;5111828;28;20936;-78
2022/04/05 03:12:38;;;;;;;15.60;12.20;;;;;;;;;;5105416;28;20486;-79
2022/04/05 03:15:07;;;;;;;14.83;12.00;;;;;;;;;;5075081;28;20443;-78
2022/04/05 03:17:34;;;;;;;15.40;12.50;;;;;;;;;;5092600;28;20438;-78
2022/04/05 03:20:01;;;;;;;18.40;12.30;;;;;;;;;;5098057;28;20447;-78
2022/04/05 03:22:28;;;;;;;14.93;13.07;;;;;;;;;;5098584;28;20435;-78
2022/04/05 03:24:57;;;;;;;15.90;12.80;;;;;;;;;;5109686;28;20442;-78
2022/04/05 03:27:24;;;;;;;14.70;10.93;;;;;;;;;;5110978;28;20453;-78
2022/04/05 03:29:51;;;;;;;15.60;12.33;;;;;;;;;;5110842;28;20474;-79
2022/04/05 03:32:18;;;;;;;12.73;11.17;;;;;;;;;;5111503;28;20835;-79
2022/04/05 03:34:46;;;;;;;15.70;12.13;;;;;;;;;;5105892;28;20447;-78
2022/04/05 03:37:13;;;;;;;19.30;12.90;;;;;;;;;;5092614;28;20447;-78
2022/04/05 03:39:40;;;;;;;15.67;12.13;;;;;;;;;;5092395;28;20460;-79
2022/04/05 03:42:10;;;;;;;15.10;11.93;;;;;;;;;;5097267;28;20797;-78
2022/04/05 03:44:37;;;;;;;16.20;12.13;;;;;;;;;;5098373;28;20776;-80
2022/04/05 03:47:04;;;;;;;15.13;12.30;;;;;;;;;;5109063;28;20846;-78
2022/04/05 03:49:31;;;;;;;17.87;12.60;;;;;;;;;;5110865;28;20461;-80
2022/04/05 03:51:58;;;;;;;14.97;12.13;;;;;;;;;;5110639;28;21010;-78
2022/04/05 03:54:26;;;;;;;15.53;12.57;;;;;;;;;;5114706;28;20450;-78
2022/04/05 03:56:53;;;;;;;14.87;12.47;;;;;;;;;;5111530;28;20463;-79
2022/04/05 03:59:21;;;;;;;17.57;12.23;;;;;;;;;;5096463;28;20463;-79
2022/04/05 04:01:48;;;;;;;19.40;13.00;;;;;;;;;;5096409;28;20434;-78
2022/04/05 04:04:15;;;;;;;19.33;13.37;;;;;;;;;;5100629;28;20444;-78
2022/04/05 04:06:43;;;;;;;16.70;13.20;;;;;;;;;;5102011;28;20985;-79
2022/04/05 04:09:11;;;;;;;21.40;14.80;;;;;;;;;;5095500;28;20459;-79
2022/04/05 04:11:40;;;;;;;18.57;13.43;;;;;;;;;;5093974;28;20749;-78
2022/04/05 04:14:07;;;;;;;19.70;13.93;;;;;;;;;;5094370;28;20442;-78
2022/04/05 04:16:36;;;;;;;19.03;13.87;;;;;;;;;;5094811;28;20538;-77
2022/04/05 04:19:03;;;;;;;19.27;14.50;;;;;;;;;;5093981;28;20913;-78
2022/04/05 04:21:30;;;;;;;22.83;15.83;;;;;;;;;;5096591;28;20447;-78
2022/04/05 04:23:58;;;;;;;19.60;14.73;;;;;;;;;;5096097;28;20435;-78
2022/04/05 04:26:25;;;;;;;21.40;15.00;;;;;;;;;;5100984;28;20447;-80
2022/04/05 04:28:55;;;;;;;23.00;16.17;;;;;;;;;;5103001;28;20478;-77
2022/04/05 04:31:22;;;;;;;23.13;15.80;;;;;;;;;;5093295;28;20449;-79
2022/04/05 04:33:51;;;;;;;21.50;15.73;;;;;;;;;;5113775;28;20568;-80
2022/04/05 04:36:19;;;;;;;21.63;15.23;;;;;;;;;;5096380;28;20505;-78
2022/04/05 04:38:46;;;;;;;20.37;15.67;;;;;;;;;;5114761;28;20458;-79
2022/04/05 04:41:13;;;;;;;23.53;15.87;;;;;;;;;;5112442;28;20852;-78
2022/04/05 04:43:40;;;;;;;23.77;16.03;;;;;;;;;;5095845;28;20443;-81
2022/04/05 04:46:11;;;;;;;25.80;17.17;;;;;;;;;;5095378;28;20439;-80
2022/04/05 04:48:38;;;;;;;28.90;19.23;;;;;;;;;;5099224;28;20576;-78
2022/04/05 04:51:06;;;;;;;23.30;16.47;;;;;;;;;;5101209;28;20427;-78
2022/04/05 04:53:33;;;;;;;25.63;18.40;;;;;;;;;;5109312;28;20998;-78
2022/04/05 04:56:01;;;;;;;25.13;17.40;;;;;;;;;;5113630;28;20819;-78
2022/04/05 04:58:28;;;;;;;23.83;16.90;;;;;;;;;;5114227;28;20470;-79
2022/04/05 05:00:55;;;;;;;27.43;18.00;;;;;;;;;;5113966;28;20438;-78
2022/04/05 05:03:22;;;;;;;23.83;18.57;;;;;;;;;;5114578;28;20849;-79
2022/04/05 05:05:49;;;;;;;22.17;17.03;;;;;;;;;;5074099;28;20432;-79
2022/04/05 05:08:18;;;;;;;25.03;16.27;;;;;;;;;;5074792;28;20874;-79
2022/04/05 05:10:45;;;;;;;23.70;17.17;;;;;;;;;;5089450;28;20913;-78
2022/04/05 05:13:12;;;;;;;23.87;16.93;;;;;;;;;;5100540;28;20484;-78
2022/04/05 05:15:40;;;;;;;27.97;17.20;;;;;;;;;;5095702;28;20789;-78
2022/04/05 05:18:07;;;;;;;21.50;17.40;;;;;;;;;;5093219;28;20470;-80
2022/04/05 05:20:34;;;;;;;24.13;18.07;;;;;;;;;;5093050;28;20803;-80
2022/04/05 05:23:02;;;;;;;26.70;16.73;;;;;;;;;;5093592;28;20444;-81
2022/04/05 05:25:30;;;;;;;22.50;16.30;;;;;;;;;;5093097;28;20781;-77
2022/04/05 05:27:57;;;;;;;24.57;17.20;;;;;;;;;;5093826;28;20506;-82
2022/04/05 05:30:24;;;;;;;28.57;19.23;;;;;;;;;;5095046;28;20459;-80
2022/04/05 05:32:54;;;;;;;24.60;16.80;;;;;;;;;;5097529;28;20479;-83
2022/04/05 05:35:22;;;;;;;24.60;16.60;;;;;;;;;;5100704;28;20436;-79
2022/04/05 05:37:51;;;;;;;25.40;17.10;;;;;;;;;;5107409;28;21021;-83
2022/04/05 05:40:19;;;;;;;22.87;17.60;;;;;;;;;;5112744;28;20495;-80
2022/04/05 05:42:55;;;;;;;22.00;17.37;;;;;;;;;;5112825;28;20551;-80
2022/04/05 05:45:23;;;;;;;26.37;17.60;;;;;;;;;;5113348;28;20541;-83
2022/04/05 05:47:52;;;;;;;23.70;18.57;;;;;;;;;;5113078;28;20458;-80
2022/04/05 05:50:20;;;;;;;27.40;22.60;;;;;;;;;;5094044;28;20443;-81
2022/04/05 05:52:47;;;;;;;26.53;19.97;;;;;;;;;;5076121;28;20471;-80
2022/04/05 05:55:15;;;;;;;33.83;22.97;;;;;;;;;;5079482;28;20543;-80
2022/04/05 05:57:43;;;;;;;26.83;19.20;;;;;;;;;;5099858;28;20451;-79
2022/04/05 06:00:16;;;;;;;28.63;21.17;;;;;;;;;;5094738;28;20443;-79
2022/04/05 06:02:44;;;;;;;31.17;22.07;;;;;;;;;;5074756;28;20498;-81
2022/04/05 06:05:12;;;;;;;30.50;20.27;;;;;;;;;;5092170;28;20475;-80
2022/04/05 06:07:39;;;;;;;23.27;18.13;;;;;;;;;;5075925;28;20471;-79
2022/04/05 06:10:08;;;;;;;21.20;16.80;;;;;;;;;;5093591;28;20443;-79
2022/04/05 06:12:37;;;;;;;26.03;18.60;;;;;;;;;;5093349;28;20501;-79
2022/04/05 06:15:05;;;;;;;26.50;19.20;;;;;;;;;;5094311;28;20441;-83
2022/04/05 06:17:33;;;;;;;26.00;19.07;;;;;;;;;;5096498;28;20812;-80
2022/04/05 06:20:00;;;;;;;24.17;17.63;;;;;;;;;;5099462;28;20427;-80
2022/04/05 06:22:28;;;;;;;23.57;16.97;;;;;;;;;;5094716;28;20833;-79
2022/04/05 06:24:55;;;;;;;22.93;17.20;;;;;;;;;;5091895;28;20457;-82
2022/04/05 06:27:23;;;;;;;28.37;18.90;;;;;;;;;;5091817;28;20444;-80
2022/04/05 06:29:50;;;;;;;20.17;15.70;;;;;;;;;;5091725;28;20558;-79
2022/04/05 06:32:17;;;;;;;23.50;16.13;;;;;;;;;;5091441;28;20451;-82
2022/04/05 06:34:46;;;;;;;21.07;15.83;;;;;;;;;;5092711;28;20473;-81
2022/04/05 06:37:13;;;;;;;21.47;15.97;;;;;;;;;;5093685;28;20446;-80
2022/04/05 06:39:40;;;;;;;21.67;16.23;;;;;;;;;;5095762;28;20454;-79
2022/04/05 06:42:07;;;;;;;21.23;15.97;;;;;;;;;;5099306;28;20801;-81
2022/04/05 06:44:34;;;;;;;26.87;21.00;;;;;;;;;;5095119;28;20454;-80
2022/04/05 06:47:02;;;;;;;26.00;19.53;;;;;;;;;;5091754;28;20613;-79
2022/04/05 06:49:29;;;;;;;24.93;19.00;;;;;;;;;;5092915;28;20479;-81
2022/04/05 06:51:57;;;;;;;34.13;22.87;;;;;;;;;;5094697;28;21127;-78
2022/04/05 06:54:24;;;;;;;22.00;18.13;;;;;;;;;;5093196;28;20479;-80
2022/04/05 06:56:52;;;;;;;22.00;16.60;;;;;;;;;;5092165;28;20455;-79
2022/04/05 06:59:19;;;;;;;20.17;15.00;;;;;;;;;;5092883;28;20463;-79
2022/04/05 07:01:46;;;;;;;20.67;14.97;;;;;;;;;;5094662;28;20458;-78
2022/04/05 07:04:13;;;;;;;17.60;14.50;;;;;;;;;;5097474;28;20870;-79
2022/04/05 07:06:40;;;;;;;16.80;13.30;;;;;;;;;;5103625;28;20434;-81
2022/04/05 07:09:09;;;;;;;20.10;15.33;;;;;;;;;;5110724;28;20462;-82
2022/04/05 07:11:37;;;;;;;18.10;14.60;;;;;;;;;;5110395;28;20449;-78
2022/04/05 07:14:04;;;;;;;16.93;13.40;;;;;;;;;;5110893;28;20474;-78
2022/04/05 07:16:31;;;;;;;16.93;14.23;;;;;;;;;;5111421;28;20449;-78
2022/04/05 07:18:58;;;;;;;17.47;12.37;;;;;;;;;;5098287;28;20487;-78
2022/04/05 07:21:26;;;;;;;17.07;12.97;;;;;;;;;;5098363;28;20434;-77
2022/04/05 07:23:53;;;;;;;19.47;13.77;;;;;;;;;;5104947;28;20450;-79
2022/04/05 07:26:21;;;;;;;17.07;13.47;;;;;;;;;;5110943;28;20456;-79
2022/04/05 07:28:49;;;;;;;15.60;12.23;;;;;;;;;;5110031;28;20476;-79
2022/04/05 07:31:16;;;;;;;14.53;12.70;;;;;;;;;;5111222;28;20445;-79
2022/04/05 07:33:43;;;;;;;13.23;11.67;;;;;;;;;;5111584;28;20477;-79
2022/04/05 07:36:10;;;;;;;15.17;12.17;;;;;;;;;;5093931;28;20459;-79
2022/04/05 07:38:37;;;;;;;12.43;11.10;;;;;;;;;;5093168;28;20815;-76
2022/04/05 07:41:04;;;;;;;13.70;12.20;;;;;;;;;;5094026;28;20827;-79
2022/04/05 07:43:33;;;;;;;12.93;10.10;;;;;;;;;;5098239;28;20442;-77
2022/04/05 07:46:01;;;;;;;14.53;11.50;;;;;;;;;;5102015;28;20434;-79
2022/04/05 07:48:29;;;;;;;11.77;9.77;;;;;;;;;;5110730;28;20470;-80
2022/04/05 07:50:57;;;;;;;14.27;10.27;;;;;;;;;;5110529;28;20541;-77
2022/04/05 07:53:25;;;;;;;11.20;9.80;;;;;;;;;;5110792;28;20912;-79
2022/04/05 07:55:54;;;;;;;11.20;9.57;;;;;;;;;;5093122;28;20446;-76
2022/04/05 07:58:21;;;;;;;13.10;10.30;;;;;;;;;;5097002;28;20463;-77
2022/04/05 08:00:50;;;;;;;10.80;9.17;;;;;;;;;;5092261;28;20450;-81
2022/04/05 08:03:17;;;;;;;10.37;9.23;;;;;;;;;;5092917;28;20439;-76
2022/04/05 08:05:44;;;;;;;11.93;9.83;;;;;;;;;;5097660;28;20928;-77
2022/04/05 08:08:12;;;;;;;10.50;9.40;;;;;;;;;;5100424;28;20458;-80
2022/04/05 08:10:39;;;;;;;10.67;9.40;;;;;;;;;;5110002;28;20447;-77
2022/04/05 08:13:06;;;;;;;12.90;9.30;;;;;;;;;;5110251;28;20474;-77
2022/04/05 08:15:33;;;;;;;11.03;8.60;;;;;;;;;;5095720;28;20465;-78
2022/04/05 08:18:02;;;;;;;9.43;8.30;;;;;;;;;;5100367;28;20931;-78
2022/04/05 08:20:29;;;;;;;9.60;8.17;;;;;;;;;;5088182;28;20822;-78
2022/04/05 08:22:56;;;;;;;8.03;7.23;;;;;;;;;;5096801;28;20443;-78
2022/04/05 08:25:23;;;;;;;9.27;7.47;;;;;;;;;;5099859;28;20443;-76
2022/04/05 08:27:50;;;;;;;9.30;7.97;;;;;;;;;;5108658;28;20463;-77
2022/04/05 08:30:19;;;;;;;9.83;8.13;;;;;;;;;;5109157;28;20461;-77
2022/04/05 08:32:47;;;;;;;10.23;8.67;;;;;;;;;;5108883;28;20934;-77
2022/04/05 08:35:17;;;;;;;10.97;9.83;;;;;;;;;;5109066;28;20434;-78
2022/04/05 08:37:45;;;;;;;12.37;9.70;;;;;;;;;;5079120;28;20980;-77
2022/04/05 08:40:13;;;;;;;12.30;10.33;;;;;;;;;;5092496;28;20481;-77
2022/04/05 08:42:42;;;;;;;11.53;10.40;;;;;;;;;;5095754;28;20434;-76
2022/04/05 08:45:10;;;;;;;12.30;11.10;;;;;;;;;;5100477;28;20435;-77
2022/04/05 08:47:40;;;;;;;11.13;9.90;;;;;;;;;;5083040;28;20454;-78
2022/04/05 08:50:08;;;;;;;11.93;10.13;;;;;;;;;;5112226;28;20782;-77
2022/04/05 08:52:36;;;;;;;12.00;10.70;;;;;;;;;;5113853;28;20438;-76
2022/04/05 08:55:04;;;;;;;12.00;10.87;;;;;;;;;;5113613;28;20488;-77
2022/04/05 08:57:31;;;;;;;13.30;12.00;;;;;;;;;;5113491;28;20434;-77
2022/04/05 08:59:58;;;;;;;14.50;11.50;;;;;;;;;;5108264;28;20485;-78
2022/04/05 09:02:26;;;;;;;13.40;12.00;;;;;;;;;;5095210;28;20443;-76
2022/04/05 09:04:53;;;;;;;12.73;11.43;;;;;;;;;;5077588;28;20445;-78
2022/04/05 09:07:21;;;;;;;12.00;10.80;;;;;;;;;;5099616;28;20434;-75
2022/04/05 09:10:07;;;;;;;14.23;12.30;;;;;;;;;;5082524;28;20541;-77
2022/04/05 09:12:39;;;;;;;11.87;10.67;;;;;;;;;;5092949;28;20443;-77
2022/04/05 09:15:09;;;;;;;12.00;10.80;;;;;;;;;;5092582;28;20519;-76
2022/04/05 09:17:40;;;;;;;11.53;10.33;;;;;;;;;;5093134;28;20462;-76
2022/04/05 09:20:08;;;;;;;13.00;10.90;;;;;;;;;;5075608;28;20456;-78
2022/04/05 09:22:35;;;;;;;12.00;10.27;;;;;;;;;;5093314;28;20455;-78
2022/04/05 09:25:05;;;;;;;13.00;11.80;;;;;;;;;;5094714;28;21014;-78
2022/04/05 09:27:48;;;;;;;12.43;11.20;;;;;;;;;;5078611;28;20908;-77
2022/04/05 09:30:15;;;;;;;14.70;12.50;;;;;;;;;;5100530;28;20426;-77
2022/04/05 09:32:46;;;;;;;11.90;10.90;;;;;;;;;;5096206;28;20435;-78
2022/04/05 09:35:14;;;;;;;17.33;11.70;;;;;;;;;;5092410;28;20936;-78
2022/04/05 09:37:42;;;;;;;13.47;12.17;;;;;;;;;;5092286;28;20504;-77
2022/04/05 09:40:21;;;;;;;12.30;11.10;;;;;;;;;;5092452;28;20440;-77
2022/04/05 09:43:04;;;;;;;14.67;11.73;;;;;;;;;;5075083;28;20443;-78
2022/04/05 09:45:46;;;;;;;12.70;11.43;;;;;;;;;;5058843;28;20443;-77
2022/04/05 09:48:14;;;;;;;11.40;10.30;;;;;;;;;;5073314;28;20460;-77
2022/04/05 09:50:55;;;;;;;13.07;11.70;;;;;;;;;;5074222;28;20461;-76
2022/04/05 09:53:23;;;;;;;12.60;10.07;;;;;;;;;;5099269;28;20434;-77
2022/04/05 09:56:02;;;;;;;11.30;10.17;;;;;;;;;;5110815;28;20438;-76
2022/04/05 09:58:29;;;;;;;11.90;10.80;;;;;;;;;;5112256;28;20553;-77
2022/04/05 10:01:07;;;;;;;11.47;10.30;;;;;;;;;;5112423;28;20507;-77
2022/04/05 10:03:34;;;;;;;15.90;11.40;;;;;;;;;;5112794;28;21012;-75
2022/04/05 10:06:03;;;;;;;12.33;11.03;;;;;;;;;;5086846;28;20456;-76
2022/04/05 10:08:30;;;;;;;12.23;11.00;;;;;;;;;;5076250;28;20557;-76
2022/04/05 10:10:59;;;;;;;12.73;11.47;;;;;;;;;;5093872;28;20508;-79
2022/04/05 10:13:26;;;;;;;11.03;9.77;;;;;;;;;;5098557;28;20435;-76
2022/04/05 10:15:53;;;;;;;11.03;10.03;;;;;;;;;;5100137;28;20432;-77
2022/04/05 10:18:21;;;;;;;11.97;9.20;;;;;;;;;;5110796;28;20893;-77
2022/04/05 10:20:49;;;;;;;12.20;9.37;;;;;;;;;;5112145;28;20434;-80
2022/04/05 10:23:18;;;;;;;9.57;8.57;;;;;;;;;;5094021;28;20450;-78
2022/04/05 10:25:45;;;;;;;9.80;8.80;;;;;;;;;;5112319;28;20495;-78
2022/04/05 10:28:17;;;;;;;8.77;7.87;;;;;;;;;;5106181;28;20475;-78
2022/04/05 10:30:45;;;;;;;10.57;9.50;;;;;;;;;;5093976;28;20481;-79
2022/04/05 10:33:14;;;;;;;8.97;8.17;;;;;;;;;;5093791;28;20542;-81
2022/04/05 10:35:44;;;;;;;8.43;7.73;;;;;;;;;;5079414;28;20471;-75
2022/04/05 10:38:12;;;;;;;7.10;6.50;;;;;;;;;;5098991;28;20562;-78
2022/04/05 10:40:39;;;;;;;8.33;7.53;;;;;;;;;;5091741;28;20439;-77
2022/04/05 10:43:17;;;;;;;7.93;7.23;;;;;;;;;;5114158;28;20444;-79
2022/04/05 10:45:45;;;;;;;7.77;7.07;;;;;;;;;;5113066;28;20795;-80
2022/04/05 10:48:14;;;;;;;8.13;7.43;;;;;;;;;;5093078;28;20864;-77
2022/04/05 10:50:42;;;;;;;7.90;7.20;;;;;;;;;;5103489;28;20919;-79
2022/04/05 10:53:17;;;;;;;8.73;7.93;;;;;;;;;;5095887;28;20503;-77
2022/04/05 10:55:59;;;;;;;7.80;7.10;;;;;;;;;;5095981;28;20478;-77
2022/04/05 10:58:28;;;;;;;8.37;7.67;;;;;;;;;;5066840;28;20823;-77
2022/04/05 11:01:13;;;;;;;8.67;7.87;;;;;;;;;;5067136;28;20534;-77
2022/04/05 11:03:41;;;;;;;7.40;6.80;;;;;;;;;;5067261;28;20447;-77
2022/04/05 11:06:08;;;;;;;8.73;7.83;;;;;;;;;;5067673;28;20451;-78
2022/04/05 11:08:35;;;;;;;9.43;8.63;;;;;;;;;;5079349;28;20579;-79
2022/04/05 11:11:04;;;;;;;8.77;7.87;;;;;;;;;;5088964;28;20797;-79
2022/04/05 11:13:34;;;;;;;8.27;7.57;;;;;;;;;;5071219;28;20806;-79
2022/04/05 11:16:05;;;;;;;9.83;8.90;;;;;;;;;;5094431;28;20486;-77
2022/04/05 11:18:44;;;;;;;;;;;;;;;;;;;;;
2022/04/05 11:21:12;;;;;;;8.00;7.20;;;;;;;;;;5086339;28;20454;-77
2022/04/05 11:23:44;;;;;;;9.27;8.40;;;;;;;;;;5087406;28;20502;-77
2022/04/05 11:26:26;;;;;;;8.80;7.90;;;;;;;;;;5069241;28;20452;-77
2022/04/05 11:28:55;;;;;;;8.37;7.37;;;;;;;;;;5071589;28;20831;-76
2022/04/05 11:31:37;;;;;;;8.30;7.57;;;;;;;;;;5087643;28;20462;-76
2022/04/05 11:34:19;;;;;;;11.30;7.57;;;;;;;;;;5072712;28;20784;-76
2022/04/05 11:36:48;;;;;;;8.43;7.63;;;;;;;;;;5074378;28;20450;-76
2022/04/05 11:39:15;;;;;;;9.20;8.30;;;;;;;;;;5093875;28;21015;-76
2022/04/05 11:41:43;;;;;;;9.97;9.00;;;;;;;;;;5092284;28;20817;-80
2022/04/05 11:44:14;;;;;;;7.70;7.00;;;;;;;;;;5086745;28;20687;-79
2022/04/05 11:46:42;;;;;;;9.27;8.47;;;;;;;;;;5086621;28;20818;-78
2022/04/05 11:49:11;;;;;;;10.20;7.00;;;;;;;;;;5087007;28;20470;-77
2022/04/05 11:51:48;;;;;;;8.37;7.60;;;;;;;;;;5087360;28;20951;-79
2022/04/05 11:54:17;;;;;;;7.70;7.00;;;;;;;;;;5087861;28;20479;-78
2022/04/05 11:56:45;;;;;;;7.50;6.80;;;;;;;;;;5088257;28;20509;-79
2022/04/05 11:59:14;;;;;;;8.53;7.47;;;;;;;;;;5073023;28;20473;-79
2022/04/05 12:01:43;;;;;;;6.97;6.40;;;;;;;;;;5096669;28;20442;-79
2022/04/05 12:04:11;;;;;;;6.83;6.23;;;;;;;;;;5078110;28;20430;-78
2022/04/05 12:06:40;;;;;;;7.60;6.43;;;;;;;;;;5089543;28;20455;-79
2022/04/05 12:09:07;;;;;;;8.13;6.67;;;;;;;;;;5089154;28;20465;-79
2022/04/05 12:11:36;;;;;;;7.17;6.53;;;;;;;;;;5071589;28;20453;-83
2022/04/05 12:14:05;;;;;;;7.63;6.93;;;;;;;;;;5091583;28;20806;-79
2022/04/05 12:16:46;;;;;;;7.30;6.60;;;;;;;;;;5094960;28;20478;-80
2022/04/05 12:19:13;;;;;;;8.03;7.10;;;;;;;;;;5095877;28;21015;-81
2022/04/05 12:21:40;;;;;;;6.83;6.23;;;;;;;;;;5097029;28;20445;-80
2022/04/05 12:24:08;;;;;;;6.67;5.97;;;;;;;;;;5101314;28;20475;-79
2022/04/05 12:26:35;;;;;;;8.50;7.70;;;;;;;;;;5098195;28;20840;-80
2022/04/05 12:29:02;;;;;;;7.10;6.50;;;;;;;;;;5092658;28;20473;-80
2022/04/05 12:31:30;;;;;;;8.60;6.37;;;;;;;;;;5093374;28;20452;-80
2022/04/05 12:34:00;;;;;;;7.53;6.83;;;;;;;;;;5092920;28;20452;-80
2022/04/05 12:36:28;;;;;;;7.40;6.70;;;;;;;;;;5093985;28;20475;-80
2022/04/05 12:38:55;;;;;;;7.00;6.30;;;;;;;;;;5076558;28;20488;-80
2022/04/05 12:41:24;;;;;;;7.30;6.60;;;;;;;;;;5095402;28;20536;-81
2022/04/05 12:44:06;;;;;;;6.80;6.30;;;;;;;;;;5095934;28;20546;-78
2022/04/05 12:46:38;;;;;;;7.77;7.07;;;;;;;;;;5100095;28;21416;-78
2022/04/05 12:49:16;;;;;;;9.90;7.73;;;;;;;;;;5104203;28;20453;-78
2022/04/05 12:51:45;;;;;;;7.90;7.10;;;;;;;;;;5113859;28;20442;-81
2022/04/05 12:54:26;;;;;;;7.40;6.70;;;;;;;;;;5113575;28;20436;-81
2022/04/05 12:56:54;;;;;;;6.90;6.20;;;;;;;;;;5098146;28;20439;-82
2022/04/05 12:59:28;;;;;;;7.93;7.00;;;;;;;;;;5114218;28;20472;-78
2022/04/05 13:01:56;;;;;;;7.70;7.00;;;;;;;;;;5098134;28;20448;-76
2022/04/05 13:04:24;;;;;;;6.90;6.27;;;;;;;;;;5095440;28;20821;-79
2022/04/05 13:06:53;;;;;;;8.70;6.80;;;;;;;;;;5096626;28;20435;-78
2022/04/05 13:09:28;;;;;;;6.67;5.97;;;;;;;;;;5084182;28;20454;-79
2022/04/05 13:12:07;;;;;;;6.90;6.27;;;;;;;;;;5098704;28;20797;-77
2022/04/05 13:14:34;;;;;;;7.53;6.83;;;;;;;;;;5093065;28;20442;-79
2022/04/05 13:17:02;;;;;;;9.53;8.60;;;;;;;;;;5093842;28;20441;-78
2022/04/05 13:19:30;;;;;;;10.60;8.47;;;;;;;;;;5093548;28;20473;-78
2022/04/05 13:21:58;;;;;;;9.73;8.83;;;;;;;;;;5094583;28;20439;-76
2022/04/05 13:24:28;;;;;;;9.93;8.07;;;;;;;;;;5077467;28;20470;-77
2022/04/05 13:26:56;;;;;;;9.77;8.50;;;;;;;;;;5095714;28;20496;-77
2022/04/05 13:29:25;;;;;;;8.27;7.40;;;;;;;;;;5078769;28;20486;-78
2022/04/05 13:31:54;;;;;;;7.40;6.70;;;;;;;;;;5083415;28;20447;-78
2022/04/05 13:34:22;;;;;;;7.93;7.07;;;;;;;;;;5088309;28;20467;-79
2022/04/05 13:36:52;;;;;;;7.53;6.30;;;;;;;;;;5115077;28;20478;-78
2022/04/05 13:39:19;;;;;;;7.60;6.90;;;;;;;;;;5114348;28;20466;-78
2022/04/05 13:41:47;;;;;;;7.40;6.70;;;;;;;;;;5113670;28;20808;-78
2022/04/05 13:44:15;;;;;;;6.83;6.03;;;;;;;;;;5113818;28;20451;-77
2022/04/05 13:46:42;;;;;;;6.63;6.03;;;;;;;;;;5081817;28;20535;-77
2022/04/05 13:49:10;;;;;;;8.60;6.23;;;;;;;;;;5094548;28;20472;-77
2022/04/05 13:51:37;;;;;;;6.63;6.00;;;;;;;;;;5094491;28;20515;-78
2022/04/05 13:54:06;;;;;;;6.47;5.87;;;;;;;;;;5081704;28;20467;-77
2022/04/05 13:56:34;;;;;;;6.63;5.93;;;;;;;;;;5102178;28;20475;-80
2022/04/05 13:59:01;;;;;;;6.57;5.97;;;;;;;;;;5095517;28;20487;-79
2022/04/05 14:01:28;;;;;;;6.20;5.70;;;;;;;;;;5114206;28;20439;-79
2022/04/05 14:03:57;;;;;;;6.43;5.83;;;;;;;;;;5113058;28;20445;-78
2022/04/05 14:06:26;;;;;;;7.10;6.47;;;;;;;;;;5095161;28;20547;-77
2022/04/05 14:08:53;;;;;;;8.47;7.30;;;;;;;;;;5085154;28;20568;-76
2022/04/05 14:11:22;;;;;;;7.90;7.20;;;;;;;;;;5076432;28;20444;-78
2022/04/05 14:13:49;;;;;;;6.80;6.20;;;;;;;;;;5097157;28;20448;-78
2022/04/05 14:16:17;;;;;;;7.90;7.10;;;;;;;;;;5099894;28;20988;-78
2022/04/05 14:18:44;;;;;;;7.27;6.67;;;;;;;;;;5097056;28;20468;-77
2022/04/05 14:21:11;;;;;;;7.80;7.07;;;;;;;;;;5092071;28;20451;-77
2022/04/05 14:23:39;;;;;;;8.77;7.20;;;;;;;;;;5091563;28;20798;-77
2022/04/05 14:26:07;;;;;;;8.33;7.43;;;;;;;;;;5085300;28;20460;-78
2022/04/05 14:28:35;;;;;;;9.30;7.23;;;;;;;;;;5089996;28;20482;-77
2022/04/05 14:31:02;;;;;;;8.80;7.90;;;;;;;;;;5093142;28;20474;-79
2022/04/05 14:33:30;;;;;;;9.50;8.33;;;;;;;;;;5093784;28;20447;-77
2022/04/05 14:35:57;;;;;;;8.80;7.90;;;;;;;;;;5095523;28;20998;-78